Lorenton, Pennsylvania
Current Conditions -  °F | °C
As of 1:35 AM on Tuesday 21 Oct 2014 (Local Time) from KN38 Reporting Station
Overcast Overcast  
Wind Chill: 46°   Ceiling: 3500
Heat Index: 46°   Visibility: 10mi
Dew Point: 41°   Wind: 3mph
Humidity: 81%   Direction: 220°SW
Pressure: 29.86"   Gusts: NA
Location:  41.533°N, 77.3132°W
Report Text: KN38 210535Z AUTO 22003KT 10SM BKN035 OVC043 08/05 A2986 RMK AO2
Loading
Personal Weather Stations






























Interactive Weather Map
Tropical Storm Tracking
New forecast layout! Learn more

10-Day Weather Forecast

Advertisements
Track Severe Weather on mobile